createdAt,value
2018-07-08T00:01:57.303Z,5.90
2018-07-08T00:04:24.559Z,6.73
2018-07-08T00:06:56.113Z,7.60
2018-07-08T00:09:23.510Z,6.40
2018-07-08T00:11:50.782Z,6.30
2018-07-08T00:14:18.036Z,6.50
2018-07-08T00:16:45.285Z,6.80
2018-07-08T00:19:12.545Z,7.67
2018-07-08T00:21:39.836Z,6.53
2018-07-08T00:24:07.057Z,6.77
2018-07-08T00:26:34.354Z,6.90
2018-07-08T00:29:01.597Z,6.73
2018-07-08T00:31:28.854Z,7.50
2018-07-08T00:33:56.072Z,7.37
2018-07-08T00:36:23.438Z,7.20
2018-07-08T00:38:50.678Z,7.23
2018-07-08T00:41:17.933Z,7.10
2018-07-08T00:43:45.198Z,6.60
2018-07-08T00:46:12.497Z,6.20
2018-07-08T00:48:39.713Z,7.20
2018-07-08T00:51:06.979Z,6.00
2018-07-08T00:53:34.305Z,6.87
2018-07-08T00:56:01.566Z,6.27
2018-07-08T00:58:28.837Z,6.10
2018-07-08T01:00:56.086Z,7.20
2018-07-08T01:03:23.361Z,6.87
2018-07-08T01:05:50.608Z,6.87
2018-07-08T01:08:17.845Z,6.80
2018-07-08T01:10:45.195Z,7.20
2018-07-08T01:13:12.473Z,6.60
2018-07-08T01:15:39.721Z,6.83
2018-07-08T01:18:06.973Z,6.50
2018-07-08T01:20:34.217Z,6.30
2018-07-08T01:23:01.476Z,6.27
2018-07-08T01:25:34.371Z,7.60
2018-07-08T01:28:01.622Z,7.00
2018-07-08T01:30:28.852Z,6.40
2018-07-08T01:32:56.106Z,6.50
2018-07-08T01:35:23.341Z,6.27
2018-07-08T01:37:50.599Z,6.70
2018-07-08T01:40:17.874Z,6.80
2018-07-08T01:42:45.130Z,7.03
2018-07-08T01:45:12.606Z,6.60
2018-07-08T01:47:39.865Z,6.50
2018-07-08T01:50:07.213Z,7.40
2018-07-08T01:52:34.556Z,6.70
2018-07-08T01:55:01.800Z,7.60
2018-07-08T01:57:29.076Z,7.20
2018-07-08T01:59:56.333Z,6.80
2018-07-08T02:02:23.575Z,6.47
2018-07-08T02:04:51.653Z,6.60
2018-07-08T02:07:18.912Z,6.87
2018-07-08T02:09:46.649Z,5.70
2018-07-08T02:12:14.643Z,6.00
2018-07-08T02:14:41.906Z,6.60
2018-07-08T02:17:09.226Z,6.80
2018-07-08T02:19:36.808Z,6.73
2018-07-08T02:22:04.102Z,6.67
2018-07-08T02:24:31.354Z,6.47
2018-07-08T02:26:58.583Z,6.67
2018-07-08T02:29:25.847Z,7.10
2018-07-08T02:31:53.115Z,6.40
2018-07-08T02:34:20.545Z,6.43
2018-07-08T02:36:47.786Z,6.20
2018-07-08T02:39:15.025Z,7.40
2018-07-08T02:41:42.295Z,6.40
2018-07-08T02:44:09.538Z,6.87
2018-07-08T02:46:36.763Z,6.43
2018-07-08T02:49:04.027Z,6.17
2018-07-08T02:51:31.734Z,6.63
2018-07-08T02:53:59.027Z,9.00
2018-07-08T02:56:26.301Z,7.57
2018-07-08T02:58:54.001Z,7.83
2018-07-08T03:01:21.638Z,6.70
2018-07-08T03:03:49.221Z,6.50
2018-07-08T03:06:16.461Z,6.77
2018-07-08T03:08:43.726Z,6.40
2018-07-08T03:11:10.981Z,6.53
2018-07-08T03:13:38.222Z,6.97
2018-07-08T03:16:05.477Z,7.43
2018-07-08T03:18:32.711Z,7.17
2018-07-08T03:20:59.963Z,6.63
2018-07-08T03:23:27.403Z,6.63
2018-07-08T03:25:54.794Z,7.57
2018-07-08T03:28:22.030Z,6.50
2018-07-08T03:30:49.272Z,6.07
2018-07-08T03:33:16.525Z,6.60
2018-07-08T03:35:43.737Z,6.43
2018-07-08T03:38:11.013Z,5.80
2018-07-08T03:40:38.244Z,7.00
2018-07-08T03:43:05.674Z,6.10
2018-07-08T03:45:32.934Z,6.50
2018-07-08T03:48:00.196Z,6.60
2018-07-08T03:50:27.462Z,5.87
2018-07-08T03:52:54.713Z,6.07
2018-07-08T03:55:21.968Z,6.37
2018-07-08T03:57:49.225Z,6.20
2018-07-08T04:00:16.477Z,6.43
2018-07-08T04:02:43.713Z,6.60
2018-07-08T04:05:10.983Z,6.50
2018-07-08T04:07:38.213Z,7.03
2018-07-08T04:10:05.477Z,6.80
2018-07-08T04:12:32.729Z,7.80
2018-07-08T04:15:00.017Z,5.70
2018-07-08T04:17:27.249Z,5.63
2018-07-08T04:19:54.496Z,5.93
2018-07-08T04:22:21.762Z,6.00
2018-07-08T04:24:49.024Z,5.90
2018-07-08T04:27:16.247Z,5.70
2018-07-08T04:29:43.517Z,6.10
2018-07-08T04:32:10.774Z,5.77
2018-07-08T04:34:38.000Z,5.87
2018-07-08T04:37:05.246Z,5.97
2018-07-08T04:39:32.542Z,5.73
2018-07-08T04:42:00.109Z,5.90
2018-07-08T04:44:27.346Z,6.50
2018-07-08T04:46:54.610Z,5.80
2018-07-08T04:49:21.968Z,5.70
2018-07-08T04:51:49.312Z,6.20
2018-07-08T04:54:16.540Z,5.90
2018-07-08T04:56:43.875Z,6.77
2018-07-08T04:59:11.109Z,6.20
2018-07-08T05:01:38.649Z,6.53
2018-07-08T05:04:05.917Z,5.80
2018-07-08T05:06:33.177Z,6.37
2018-07-08T05:09:00.705Z,6.00
2018-07-08T05:11:27.958Z,6.17
2018-07-08T05:13:55.239Z,6.00
2018-07-08T05:16:22.473Z,6.23
2018-07-08T05:18:49.743Z,6.07
2018-07-08T05:21:16.974Z,5.27
2018-07-08T05:23:44.240Z,5.80
2018-07-08T05:26:11.574Z,5.73
2018-07-08T05:28:38.949Z,6.23
2018-07-08T05:31:06.202Z,5.80
2018-07-08T05:33:33.441Z,6.53
2018-07-08T05:36:00.682Z,8.73
2018-07-08T05:38:28.065Z,6.80
2018-07-08T05:40:55.328Z,6.30
2018-07-08T05:43:22.563Z,6.27
2018-07-08T05:45:49.797Z,6.83
2018-07-08T05:48:17.140Z,6.40
2018-07-08T05:50:44.357Z,5.50
2018-07-08T05:53:11.610Z,6.40
2018-07-08T05:55:38.880Z,7.70
2018-07-08T05:58:06.123Z,8.63
2018-07-08T06:00:33.389Z,6.50
2018-07-08T06:03:00.643Z,6.43
2018-07-08T06:05:27.905Z,5.87
2018-07-08T06:07:55.128Z,6.97
2018-07-08T06:10:22.377Z,6.10
2018-07-08T06:12:49.657Z,6.80
2018-07-08T06:15:16.999Z,6.17
2018-07-08T06:17:44.462Z,6.60
2018-07-08T06:20:12.406Z,6.40
2018-07-08T06:22:39.969Z,6.13
2018-07-08T06:25:07.454Z,6.47
2018-07-08T06:27:35.105Z,7.30
2018-07-08T06:30:02.945Z,6.30
2018-07-08T06:32:30.190Z,5.87
2018-07-08T06:34:57.504Z,6.53
2018-07-08T06:37:24.746Z,6.20
2018-07-08T06:39:51.990Z,6.73
2018-07-08T06:42:19.274Z,5.63
2018-07-08T06:44:46.582Z,6.67
2018-07-08T06:47:13.888Z,6.00
2018-07-08T06:49:41.331Z,5.57
2018-07-08T06:52:08.584Z,5.23
2018-07-08T06:54:36.034Z,5.40
2018-07-08T06:57:03.271Z,5.10
2018-07-08T06:59:30.571Z,5.33
2018-07-08T07:01:57.827Z,6.07
2018-07-08T07:04:25.075Z,4.83
2018-07-08T07:06:52.326Z,4.80
2018-07-08T07:09:19.598Z,5.30
2018-07-08T07:11:46.923Z,6.87
2018-07-08T07:14:14.150Z,4.37
2018-07-08T07:16:41.405Z,5.37
2018-07-08T07:19:08.694Z,5.70
2018-07-08T07:21:36.034Z,5.13
2018-07-08T07:24:03.300Z,5.10
2018-07-08T07:26:30.565Z,4.57
2018-07-08T07:28:57.817Z,4.67
2018-07-08T07:31:25.088Z,7.03
2018-07-08T07:33:52.378Z,4.90
2018-07-08T07:36:19.681Z,5.60
2018-07-08T07:38:46.939Z,5.10
2018-07-08T07:41:14.191Z,5.67
2018-07-08T07:43:41.466Z,5.83
2018-07-08T07:46:08.823Z,5.27
2018-07-08T07:48:36.329Z,5.23
2018-07-08T07:51:03.614Z,4.63
2018-07-08T07:53:30.858Z,5.50
2018-07-08T07:55:58.143Z,5.50
2018-07-08T07:58:25.429Z,4.57
2018-07-08T08:00:52.672Z,5.53
2018-07-08T08:03:19.935Z,5.43
2018-07-08T08:05:47.205Z,5.20
2018-07-08T08:08:14.489Z,5.60
2018-07-08T08:10:41.785Z,6.23
2018-07-08T08:13:09.278Z,5.90
2018-07-08T08:15:36.605Z,5.30
2018-07-08T08:18:03.948Z,6.07
2018-07-08T08:20:31.197Z,5.60
2018-07-08T08:22:58.434Z,7.27
2018-07-08T08:25:25.685Z,5.47
2018-07-08T08:27:52.949Z,5.13
2018-07-08T08:30:20.216Z,6.40
2018-07-08T08:32:47.598Z,5.37
2018-07-08T08:35:18.075Z,6.07
2018-07-08T08:37:50.655Z,5.17
2018-07-08T08:40:19.039Z,5.60
2018-07-08T08:42:46.315Z,6.43
2018-07-08T08:45:14.748Z,4.97
2018-07-08T08:47:42.048Z,5.57
2018-07-08T08:50:09.778Z,5.27
2018-07-08T08:52:37.049Z,5.47
2018-07-08T08:55:04.582Z,6.43
2018-07-08T08:57:31.832Z,4.70
2018-07-08T08:59:59.102Z,5.50
2018-07-08T09:02:26.365Z,5.17
2018-07-08T09:04:53.826Z,5.10
2018-07-08T09:07:21.874Z,5.27
2018-07-08T09:09:49.381Z,5.13
2018-07-08T09:12:16.737Z,4.43
2018-07-08T09:14:44.001Z,4.80
2018-07-08T09:17:11.536Z,5.10
2018-07-08T09:19:39.084Z,4.80
2018-07-08T09:22:06.640Z,5.10
2018-07-08T09:24:33.922Z,5.07
2018-07-08T09:27:01.184Z,4.50
2018-07-08T09:29:28.471Z,4.33
2018-07-08T09:31:55.773Z,4.60
2018-07-08T09:34:23.047Z,4.93
2018-07-08T09:36:50.318Z,4.40
2018-07-08T09:39:17.796Z,4.40
2018-07-08T09:41:46.011Z,4.90
2018-07-08T09:44:14.270Z,4.60
2018-07-08T09:46:42.672Z,4.43
2018-07-08T09:49:09.988Z,4.30
2018-07-08T09:51:37.321Z,4.23
2018-07-08T09:54:05.048Z,4.20
2018-07-08T09:56:32.448Z,4.60
2018-07-08T09:58:59.969Z,4.10
2018-07-08T10:01:27.239Z,4.07
2018-07-08T10:03:54.471Z,3.93
2018-07-08T10:06:21.729Z,4.13
2018-07-08T10:08:49.052Z,4.20
2018-07-08T10:11:16.543Z,4.17
2018-07-08T10:13:43.850Z,3.90
2018-07-08T10:16:11.294Z,5.43
2018-07-08T10:18:38.822Z,5.00
2018-07-08T10:21:06.461Z,5.53
2018-07-08T10:23:33.778Z,6.10
2018-07-08T10:26:01.054Z,4.20
2018-07-08T10:28:28.323Z,4.43
2018-07-08T10:30:55.822Z,4.60
2018-07-08T10:33:23.133Z,4.70
2018-07-08T10:35:59.580Z,4.30
2018-07-08T10:38:26.995Z,4.40
2018-07-08T10:40:54.349Z,5.80
2018-07-08T10:43:21.641Z,4.80
2018-07-08T10:45:49.103Z,5.23
2018-07-08T10:48:16.734Z,4.20
2018-07-08T10:50:44.226Z,3.53
2018-07-08T10:53:12.094Z,3.83
2018-07-08T10:55:39.758Z,10.13
2018-07-08T10:58:07.263Z,3.70
2018-07-08T11:00:34.666Z,3.13
2018-07-08T11:03:01.982Z,3.53
2018-07-08T11:05:29.297Z,4.10
2018-07-08T11:07:57.209Z,5.20
2018-07-08T11:10:24.772Z,3.40
2018-07-08T11:12:52.114Z,3.63
2018-07-08T11:15:19.408Z,3.40
2018-07-08T11:17:47.106Z,3.90
2018-07-08T11:20:14.379Z,4.07
2018-07-08T11:22:41.719Z,3.90
2018-07-08T11:25:09.112Z,3.73
2018-07-08T11:27:36.769Z,3.50
2018-07-08T11:30:04.696Z,3.57
2018-07-08T11:32:31.966Z,3.10
2018-07-08T11:34:59.244Z,3.47
2018-07-08T11:37:26.596Z,3.80
2018-07-08T11:39:53.965Z,3.40
2018-07-08T11:42:21.298Z,3.90
2018-07-08T11:44:48.605Z,4.50
2018-07-08T11:47:15.987Z,3.50
2018-07-08T11:49:43.420Z,3.33
2018-07-08T11:52:10.802Z,3.00
2018-07-08T11:54:38.182Z,3.10
2018-07-08T11:57:05.458Z,3.40
2018-07-08T11:59:32.872Z,3.00
2018-07-08T12:02:00.201Z,3.47
2018-07-08T12:04:27.597Z,3.07
2018-07-08T12:06:54.941Z,3.63
2018-07-08T12:09:22.264Z,3.63
2018-07-08T12:11:49.602Z,3.97
2018-07-08T12:14:16.988Z,3.10
2018-07-08T12:16:44.249Z,2.83
2018-07-08T12:19:11.498Z,4.40
2018-07-08T12:21:38.749Z,3.90
2018-07-08T12:24:06.050Z,3.80
2018-07-08T12:26:33.364Z,3.43
2018-07-08T12:29:00.618Z,3.10
2018-07-08T12:31:27.908Z,3.20
2018-07-08T12:33:55.207Z,3.30
2018-07-08T12:36:22.477Z,3.47
2018-07-08T12:38:49.791Z,3.37
2018-07-08T12:41:17.057Z,2.73
2018-07-08T12:43:44.312Z,3.10
2018-07-08T12:46:11.626Z,3.07
2018-07-08T12:48:38.934Z,2.23
2018-07-08T12:51:06.525Z,3.50
2018-07-08T12:53:33.814Z,3.27
2018-07-08T12:56:01.129Z,2.73
2018-07-08T12:58:28.373Z,2.20
2018-07-08T13:00:55.681Z,2.33
2018-07-08T13:03:23.118Z,2.90
2018-07-08T13:05:50.415Z,2.73
2018-07-08T13:08:17.765Z,2.70
2018-07-08T13:10:45.171Z,3.37
2018-07-08T13:13:12.442Z,2.17
2018-07-08T13:15:39.825Z,2.60
2018-07-08T13:18:07.112Z,2.57
2018-07-08T13:20:34.377Z,3.20
2018-07-08T13:25:35.532Z,2.57
2018-07-08T13:28:02.867Z,2.40
2018-07-08T13:30:30.153Z,2.40
2018-07-08T13:32:57.425Z,2.93
2018-07-08T13:35:24.691Z,2.03
2018-07-08T13:37:52.013Z,2.13
2018-07-08T13:40:19.266Z,2.20
2018-07-08T13:42:46.587Z,2.27
2018-07-08T13:45:13.882Z,2.07
2018-07-08T13:47:41.551Z,2.83
2018-07-08T13:50:08.877Z,2.63
2018-07-08T13:52:36.293Z,2.60
2018-07-08T13:55:03.529Z,2.33
2018-07-08T13:57:30.788Z,2.40
2018-07-08T13:59:58.156Z,2.40
2018-07-08T14:02:25.567Z,2.33
2018-07-08T14:04:53.385Z,2.30
2018-07-08T14:07:20.718Z,2.07
2018-07-08T14:09:48.290Z,2.23
2018-07-08T14:12:15.580Z,2.60
2018-07-08T14:14:42.869Z,2.00
2018-07-08T14:17:10.341Z,2.50
2018-07-08T14:19:37.674Z,2.37
2018-07-08T14:22:05.187Z,2.30
2018-07-08T14:24:32.514Z,2.20
2018-07-08T14:26:59.781Z,2.27
2018-07-08T14:29:27.115Z,2.30
2018-07-08T14:31:54.560Z,2.57
2018-07-08T14:34:21.870Z,1.90
2018-07-08T14:36:49.155Z,2.70
2018-07-08T14:39:16.513Z,2.20
2018-07-08T14:41:43.902Z,2.00
2018-07-08T14:44:11.207Z,2.43
2018-07-08T14:46:38.526Z,2.23
2018-07-08T14:49:06.050Z,2.20
2018-07-08T14:51:33.365Z,2.20
2018-07-08T14:54:00.661Z,2.10
2018-07-08T14:56:28.053Z,2.50
2018-07-08T14:58:55.325Z,2.60
2018-07-08T15:01:23.381Z,2.27
2018-07-08T15:03:50.970Z,2.10
2018-07-08T15:06:18.306Z,2.13
2018-07-08T15:08:45.592Z,2.57
2018-07-08T15:11:12.893Z,2.23
2018-07-08T15:13:40.261Z,2.10
2018-07-08T15:16:07.639Z,2.13
2018-07-08T15:18:35.062Z,2.00
2018-07-08T15:21:02.348Z,2.40
2018-07-08T15:23:30.716Z,2.13
2018-07-08T15:25:58.207Z,2.40
2018-07-08T15:28:25.500Z,1.87
2018-07-08T15:30:52.771Z,2.00
2018-07-08T15:33:20.139Z,2.10
2018-07-08T15:35:47.504Z,2.20
2018-07-08T15:38:14.897Z,1.90
2018-07-08T15:40:42.234Z,2.17
2018-07-08T15:43:09.913Z,2.27
2018-07-08T15:45:37.191Z,2.43
2018-07-08T15:48:04.521Z,2.20
2018-07-08T15:50:31.792Z,2.60
2018-07-08T15:52:59.154Z,2.20
2018-07-08T15:55:26.453Z,2.50
2018-07-08T15:57:53.739Z,1.90
2018-07-08T16:00:21.128Z,2.10
2018-07-08T16:02:48.824Z,2.40
2018-07-08T16:05:16.153Z,2.73
2018-07-08T16:07:43.530Z,6.57
2018-07-08T16:10:10.853Z,2.30
2018-07-08T16:12:38.109Z,2.00
2018-07-08T16:15:05.418Z,2.50
2018-07-08T16:17:32.971Z,2.10
2018-07-08T16:20:00.728Z,2.00
2018-07-08T16:22:28.075Z,2.40
2018-07-08T16:24:55.353Z,2.00
2018-07-08T16:27:22.683Z,1.80
2018-07-08T16:29:50.126Z,2.13
2018-07-08T16:32:17.397Z,2.43
2018-07-08T16:34:44.698Z,2.20
2018-07-08T16:37:12.070Z,2.17
2018-07-08T16:39:39.512Z,1.80
2018-07-08T16:42:07.008Z,2.07
2018-07-08T16:44:34.623Z,2.33
2018-07-08T16:47:02.020Z,2.30
2018-07-08T16:49:29.378Z,2.13
2018-07-08T16:51:56.700Z,2.00
2018-07-08T16:54:23.990Z,1.60
2018-07-08T16:56:51.450Z,4.67
2018-07-08T16:59:18.747Z,1.87
2018-07-08T17:01:46.015Z,2.07
2018-07-08T17:04:13.444Z,1.77
2018-07-08T17:06:40.722Z,2.00
2018-07-08T17:09:09.183Z,3.00
2018-07-08T17:11:36.494Z,2.30
2018-07-08T17:14:03.824Z,1.53
2018-07-08T17:16:31.299Z,2.27
2018-07-08T17:18:58.617Z,1.60
2018-07-08T17:21:25.906Z,2.77
2018-07-08T17:23:53.228Z,1.77
2018-07-08T17:26:20.869Z,1.93
2018-07-08T17:28:48.359Z,1.83
2018-07-08T17:31:15.860Z,1.73
2018-07-08T17:33:43.300Z,2.00
2018-07-08T17:36:10.941Z,1.67
2018-07-08T17:38:38.932Z,2.17
2018-07-08T17:41:06.574Z,1.60
2018-07-08T17:43:33.994Z,2.20
2018-07-08T17:46:01.370Z,2.03
2018-07-08T17:48:28.653Z,1.93
2018-07-08T17:50:55.925Z,1.80
2018-07-08T17:53:23.354Z,2.00
2018-07-08T17:55:50.622Z,1.97
2018-07-08T17:58:17.932Z,3.40
2018-07-08T18:00:45.322Z,2.10
2018-07-08T18:03:12.670Z,1.33
2018-07-08T18:05:40.219Z,1.50
2018-07-08T18:08:07.557Z,1.23
2018-07-08T18:10:34.907Z,1.90
2018-07-08T18:13:02.215Z,2.00
2018-07-08T18:15:29.545Z,1.93
2018-07-08T18:17:56.974Z,1.50
2018-07-08T18:20:24.389Z,1.83
2018-07-08T18:22:51.730Z,1.73
2018-07-08T18:25:19.061Z,1.57
2018-07-08T18:27:46.450Z,1.37
2018-07-08T18:30:13.773Z,2.10
2018-07-08T18:32:41.266Z,1.47
2018-07-08T18:35:08.942Z,1.73
2018-07-08T18:37:36.383Z,1.87
2018-07-08T18:40:03.880Z,1.33
2018-07-08T18:42:31.248Z,1.70
2018-07-08T18:44:58.635Z,1.63
2018-07-08T18:47:25.924Z,1.70
2018-07-08T18:49:53.507Z,1.70
2018-07-08T18:52:20.900Z,1.73
2018-07-08T18:54:48.298Z,1.60
2018-07-08T18:57:15.605Z,1.60
2018-07-08T18:59:43.075Z,1.50
2018-07-08T19:02:10.484Z,1.60
2018-07-08T19:04:39.598Z,1.70
2018-07-08T19:07:06.936Z,1.83
2018-07-08T19:09:34.271Z,1.40
2018-07-08T19:12:01.773Z,1.97
2018-07-08T19:14:29.195Z,2.40
2018-07-08T19:16:56.892Z,1.80
2018-07-08T19:19:24.511Z,1.83
2018-07-08T19:21:52.066Z,2.20
2018-07-08T19:24:19.903Z,2.80
2018-07-08T19:26:47.271Z,1.93
2018-07-08T19:29:14.664Z,2.70
2018-07-08T19:31:42.152Z,2.23
2018-07-08T19:34:10.448Z,2.43
2018-07-08T19:36:37.920Z,3.23
2018-07-08T19:39:05.980Z,2.30
2018-07-08T19:41:34.260Z,2.63
2018-07-08T19:44:01.811Z,2.60
2018-07-08T19:46:29.345Z,2.30
2018-07-08T19:48:57.079Z,2.27
2018-07-08T19:51:24.609Z,1.93
2018-07-08T19:53:52.081Z,2.57
2018-07-08T19:56:19.561Z,2.37
2018-07-08T19:58:47.277Z,2.33
2018-07-08T20:01:14.656Z,2.30
2018-07-08T20:03:42.114Z,1.90
2018-07-08T20:06:09.552Z,2.50
2018-07-08T20:08:37.122Z,1.97
2018-07-08T20:11:04.613Z,2.60
2018-07-08T20:13:32.035Z,2.40
2018-07-08T20:15:59.388Z,2.43
2018-07-08T20:18:27.071Z,2.60
2018-07-08T20:20:54.409Z,2.50
2018-07-08T20:23:21.805Z,2.47
2018-07-08T20:25:49.327Z,2.20
2018-07-08T20:28:16.866Z,3.00
2018-07-08T20:30:44.391Z,4.30
2018-07-08T20:33:11.748Z,3.70
2018-07-08T20:35:39.108Z,5.10
2018-07-08T20:38:06.998Z,4.10
2018-07-08T20:40:34.258Z,3.70
2018-07-08T20:43:02.005Z,3.43
2018-07-08T20:45:29.525Z,3.00
2018-07-08T20:47:56.875Z,3.13
2018-07-08T20:50:24.345Z,2.50
2018-07-08T20:52:51.647Z,3.03
2018-07-08T20:55:18.937Z,2.47
2018-07-08T21:00:20.174Z,2.80
2018-07-08T21:02:47.556Z,2.70
2018-07-08T21:05:14.856Z,2.63
2018-07-08T21:07:42.506Z,2.30
2018-07-08T21:10:09.899Z,2.67
2018-07-08T21:12:37.236Z,2.70
2018-07-08T21:15:05.327Z,2.87
2018-07-08T21:17:32.800Z,3.20
2018-07-08T21:20:00.115Z,3.77
2018-07-08T21:22:27.386Z,3.37
2018-07-08T21:24:54.636Z,3.37
2018-07-08T21:27:21.938Z,2.87
2018-07-08T21:29:49.377Z,3.47
2018-07-08T21:32:16.722Z,3.23
2018-07-08T21:34:44.029Z,3.10
2018-07-08T21:37:11.326Z,3.50
2018-07-08T21:39:38.610Z,3.60
2018-07-08T21:42:05.873Z,3.57
2018-07-08T21:44:33.373Z,3.20
2018-07-08T21:47:01.070Z,3.57
2018-07-08T21:49:28.386Z,3.43
2018-07-08T21:51:55.648Z,3.00
2018-07-08T21:54:22.922Z,3.20
2018-07-08T21:56:50.267Z,2.80
2018-07-08T21:59:17.553Z,3.00
2018-07-08T22:01:50.524Z,2.73
2018-07-08T22:04:17.801Z,2.80
2018-07-08T22:06:45.303Z,2.90
2018-07-08T22:09:12.551Z,2.70
2018-07-08T22:11:39.893Z,3.00
2018-07-08T22:14:07.205Z,3.10
2018-07-08T22:16:34.455Z,3.13
2018-07-08T22:19:01.728Z,3.07
2018-07-08T22:21:28.997Z,2.37
2018-07-08T22:23:56.277Z,2.83
2018-07-08T22:26:23.529Z,2.80
2018-07-08T22:28:50.936Z,2.67
2018-07-08T22:31:18.169Z,2.90
2018-07-08T22:33:45.440Z,3.30
2018-07-08T22:36:12.720Z,3.40
2018-07-08T22:38:40.041Z,3.20
2018-07-08T22:41:07.296Z,3.60
2018-07-08T22:43:34.535Z,3.37
2018-07-08T22:46:01.925Z,2.77
2018-07-08T22:48:29.190Z,3.60
2018-07-08T22:50:56.457Z,5.70
2018-07-08T22:53:23.810Z,7.73
2018-07-08T22:55:51.054Z,4.00
2018-07-08T22:58:18.334Z,2.50
2018-07-08T23:00:51.366Z,3.10
2018-07-08T23:03:54.785Z,2.80
2018-07-08T23:06:22.033Z,2.93
2018-07-08T23:08:49.994Z,2.93
2018-07-08T23:11:17.370Z,2.70
2018-07-08T23:13:44.921Z,2.70
2018-07-08T23:16:12.164Z,3.33
2018-07-08T23:18:39.417Z,2.90
2018-07-08T23:21:06.878Z,3.50
2018-07-08T23:23:34.128Z,3.13
2018-07-08T23:26:01.412Z,3.53
2018-07-08T23:28:28.653Z,4.30
2018-07-08T23:30:56.430Z,2.63
2018-07-08T23:33:23.681Z,3.90
2018-07-08T23:35:50.922Z,3.60
2018-07-08T23:38:18.198Z,3.40
2018-07-08T23:40:45.437Z,3.13
2018-07-08T23:43:12.694Z,3.10
2018-07-08T23:45:39.957Z,3.20
2018-07-08T23:48:07.357Z,3.40
2018-07-08T23:50:34.665Z,3.27
2018-07-08T23:53:01.913Z,3.30
2018-07-08T23:55:29.173Z,2.87
2018-07-08T23:57:56.397Z,3.10
